createdAt,value
2023-02-01T00:00:35.507Z,99112.00
2023-02-01T00:03:02.203Z,99106.00
2023-02-01T00:05:28.721Z,99094.00
2023-02-01T00:07:55.231Z,99085.00
2023-02-01T00:10:21.968Z,99074.00
2023-02-01T00:12:48.585Z,99063.00
2023-02-01T00:15:15.321Z,99056.00
2023-02-01T00:17:41.844Z,99056.00
2023-02-01T00:20:09.212Z,99041.00
2023-02-01T00:22:35.742Z,99048.00
2023-02-01T00:25:02.212Z,99043.00
2023-02-01T00:27:28.807Z,99051.00
2023-02-01T00:29:56.529Z,99056.00
2023-02-01T00:32:23.248Z,99049.00
2023-02-01T00:34:49.764Z,99035.00
2023-02-01T00:37:16.275Z,99027.00
2023-02-01T00:39:42.751Z,99035.00
2023-02-01T00:42:09.487Z,99037.00
2023-02-01T00:44:36.784Z,99040.00
2023-02-01T00:47:03.315Z,99036.00
2023-02-01T00:49:30.098Z,99048.00
2023-02-01T00:51:56.769Z,99040.00
2023-02-01T00:54:23.762Z,99039.00
2023-02-01T00:56:50.377Z,99026.00
2023-02-01T00:59:18.757Z,99033.00
2023-02-01T01:01:45.384Z,99032.00
2023-02-01T01:04:11.976Z,99028.00
2023-02-01T01:06:38.601Z,99035.00
2023-02-01T01:09:08.074Z,99039.00
2023-02-01T01:11:37.672Z,99027.00
2023-02-01T01:14:08.271Z,99031.00
2023-02-01T01:16:35.823Z,99033.00
2023-02-01T01:19:02.699Z,99029.00
2023-02-01T01:21:30.717Z,99030.00
2023-02-01T01:23:57.578Z,99018.00
2023-02-01T01:26:26.998Z,99020.00
2023-02-01T01:28:56.519Z,99022.00
2023-02-01T01:31:23.454Z,99050.00
2023-02-01T01:33:52.585Z,99035.00
2023-02-01T01:36:19.910Z,99028.00
2023-02-01T01:38:46.882Z,99029.00
2023-02-01T01:41:20.691Z,99038.00
2023-02-01T01:43:58.392Z,99038.00
2023-02-01T01:46:32.190Z,99033.00
2023-02-01T01:49:05.313Z,99047.00
2023-02-01T01:51:38.630Z,99042.00
2023-02-01T01:54:13.696Z,99038.00
2023-02-01T01:56:42.017Z,99056.00
2023-02-01T01:59:09.834Z,99052.00
2023-02-01T02:01:36.621Z,99047.00
2023-02-01T02:04:03.932Z,99050.00
2023-02-01T02:06:39.795Z,99036.00
2023-02-01T02:09:07.168Z,99027.00
2023-02-01T02:11:33.986Z,99007.00
2023-02-01T02:14:01.059Z,99013.00
2023-02-01T02:17:01.490Z,99018.00
2023-02-01T02:20:06.107Z,99014.00
2023-02-01T02:22:44.927Z,99017.00
2023-02-01T02:25:53.247Z,99021.00
2023-02-01T02:28:52.737Z,99016.00
2023-02-01T02:31:42.164Z,99009.00
2023-02-01T02:34:21.336Z,99003.00
2023-02-01T02:37:06.362Z,98989.00
2023-02-01T02:39:43.955Z,98981.00
2023-02-01T02:42:34.683Z,98969.00
2023-02-01T02:45:32.803Z,98970.00
2023-02-01T02:48:02.377Z,98972.00
2023-02-01T02:50:54.549Z,98956.00
2023-02-01T02:53:51.423Z,98953.00
2023-02-01T02:56:39.627Z,98961.00
2023-02-01T02:59:28.162Z,98959.00
2023-02-01T03:02:14.370Z,98966.00
2023-02-01T03:04:41.503Z,98966.00
2023-02-01T03:07:35.873Z,98961.00
2023-02-01T03:10:11.544Z,98951.00
2023-02-01T03:12:57.261Z,98957.00
2023-02-01T03:15:31.840Z,98955.00
2023-02-01T03:18:00.139Z,98963.00
2023-02-01T03:20:28.586Z,98956.00
2023-02-01T03:22:56.385Z,98956.00
2023-02-01T03:25:28.474Z,98957.00
2023-02-01T03:28:02.937Z,98953.00
2023-02-01T03:30:35.655Z,98947.00
2023-02-01T03:33:08.312Z,98950.00
2023-02-01T03:35:45.612Z,98959.00
2023-02-01T03:38:18.530Z,98977.00
2023-02-01T03:40:49.732Z,98974.00
2023-02-01T03:43:19.773Z,98976.00
2023-02-01T03:45:51.876Z,98977.00
2023-02-01T03:48:19.814Z,98981.00
2023-02-01T03:50:51.672Z,98983.00
2023-02-01T03:53:21.685Z,98985.00
2023-02-01T03:55:49.218Z,98989.00
2023-02-01T03:58:20.120Z,98992.00
2023-02-01T04:00:52.816Z,98985.00
2023-02-01T04:03:19.438Z,98983.00
2023-02-01T04:05:46.323Z,98983.00
2023-02-01T04:08:12.856Z,98982.00
2023-02-01T04:10:39.424Z,98981.00
2023-02-01T04:13:06.490Z,98991.00
2023-02-01T04:15:33.130Z,98990.00
2023-02-01T04:17:59.574Z,98988.00
2023-02-01T04:20:26.202Z,98992.00
2023-02-01T04:22:52.709Z,98992.00
2023-02-01T04:25:19.327Z,99001.00
2023-02-01T04:27:46.864Z,98996.00
2023-02-01T04:30:14.810Z,98988.00
2023-02-01T04:32:41.273Z,98985.00
2023-02-01T04:35:08.282Z,99001.00
2023-02-01T04:37:35.556Z,98989.00
2023-02-01T04:40:04.593Z,98986.00
2023-02-01T04:42:31.148Z,98987.00
2023-02-01T04:44:57.685Z,98990.00
2023-02-01T04:47:24.132Z,98981.00
2023-02-01T04:49:50.649Z,98985.00
2023-02-01T04:52:17.098Z,99000.00
2023-02-01T04:54:43.619Z,99002.00
2023-02-01T04:57:10.403Z,99008.00
2023-02-01T04:59:36.889Z,99012.00
2023-02-01T05:02:03.383Z,99004.00
2023-02-01T05:04:29.932Z,99010.00
2023-02-01T05:06:56.410Z,99011.00
2023-02-01T05:09:22.969Z,99013.00
2023-02-01T05:12:08.041Z,99011.00
2023-02-01T05:14:34.654Z,99004.00
2023-02-01T05:17:01.082Z,98997.00
2023-02-01T05:19:27.570Z,99005.00
2023-02-01T05:21:54.009Z,99006.00
2023-02-01T05:24:20.747Z,98999.00
2023-02-01T05:26:49.039Z,99009.00
2023-02-01T05:29:17.131Z,99006.00
2023-02-01T05:31:46.319Z,99008.00
2023-02-01T05:34:12.954Z,99006.00
2023-02-01T05:36:39.416Z,99014.00
2023-02-01T05:39:05.937Z,99013.00
2023-02-01T05:41:32.984Z,99002.00
2023-02-01T05:43:59.475Z,98994.00
2023-02-01T05:46:26.089Z,98980.00
2023-02-01T05:48:52.590Z,98988.00
2023-02-01T05:51:19.104Z,98990.00
2023-02-01T05:53:45.629Z,98987.00
2023-02-01T05:56:12.201Z,98982.00
2023-02-01T05:58:38.749Z,99003.00
2023-02-01T06:01:05.673Z,99007.00
2023-02-01T06:03:32.299Z,99008.00
2023-02-01T06:05:58.873Z,99019.00
2023-02-01T06:08:26.686Z,99024.00
2023-02-01T06:11:00.139Z,99037.00
2023-02-01T06:13:27.229Z,99029.00
2023-02-01T06:15:53.825Z,99023.00
2023-02-01T06:18:20.516Z,99022.00
2023-02-01T06:20:55.636Z,99027.00
2023-02-01T06:23:24.644Z,99017.00
2023-02-01T06:25:59.372Z,99024.00
2023-02-01T06:28:26.357Z,99021.00
2023-02-01T06:30:52.894Z,99021.00
2023-02-01T06:33:19.459Z,99016.00
2023-02-01T06:35:46.401Z,99020.00
2023-02-01T06:38:12.964Z,99007.00
2023-02-01T06:40:40.888Z,99012.00
2023-02-01T06:43:07.367Z,99014.00
2023-02-01T06:45:33.911Z,99006.00
2023-02-01T06:48:01.487Z,99013.00
2023-02-01T06:50:28.594Z,99016.00
2023-02-01T06:52:56.133Z,99028.00
2023-02-01T06:55:22.688Z,99031.00
2023-02-01T06:57:53.465Z,99030.00
2023-02-01T07:00:20.730Z,99030.00
2023-02-01T07:02:47.190Z,99037.00
2023-02-01T07:05:13.703Z,99027.00
2023-02-01T07:07:40.185Z,99028.00
2023-02-01T07:10:07.078Z,99027.00
2023-02-01T07:12:33.720Z,99033.00
2023-02-01T07:15:00.228Z,99028.00
2023-02-01T07:17:26.729Z,99015.00
2023-02-01T07:19:53.382Z,99014.00
2023-02-01T07:22:19.966Z,99012.00
2023-02-01T07:24:46.463Z,99025.00
2023-02-01T07:27:13.636Z,99028.00
2023-02-01T07:29:40.144Z,99026.00
2023-02-01T07:32:06.639Z,99036.00
2023-02-01T07:34:33.860Z,99028.00
2023-02-01T07:37:00.325Z,99032.00
2023-02-01T07:39:29.181Z,99024.00
2023-02-01T07:41:57.521Z,99014.00
2023-02-01T07:44:24.212Z,99020.00
2023-02-01T07:46:51.243Z,99015.00
2023-02-01T07:49:18.522Z,99020.00
2023-02-01T07:51:45.097Z,99023.00
2023-02-01T07:54:11.563Z,99035.00
2023-02-01T07:56:38.081Z,99032.00
2023-02-01T07:59:04.700Z,99036.00
2023-02-01T08:01:31.198Z,99036.00
2023-02-01T08:04:00.304Z,99039.00
2023-02-01T08:06:28.431Z,99039.00
2023-02-01T08:08:55.409Z,99052.00
2023-02-01T08:11:26.523Z,99054.00
2023-02-01T08:13:53.928Z,99062.00
2023-02-01T08:16:22.083Z,99068.00
2023-02-01T08:18:48.735Z,99060.00
2023-02-01T08:21:22.919Z,99067.00
2023-02-01T08:23:49.540Z,99075.00
2023-02-01T08:26:23.246Z,99083.00
2023-02-01T08:28:58.933Z,99078.00
2023-02-01T08:31:27.178Z,99090.00
2023-02-01T08:33:59.102Z,99074.00
2023-02-01T08:36:27.286Z,99072.00
2023-02-01T08:38:54.189Z,99073.00
2023-02-01T08:41:24.034Z,99074.00
2023-02-01T08:43:50.608Z,99079.00
2023-02-01T08:46:17.907Z,99082.00
2023-02-01T08:48:46.605Z,99078.00
2023-02-01T08:51:14.517Z,99076.00
2023-02-01T08:53:42.301Z,99077.00
2023-02-01T08:56:10.840Z,99069.00
2023-02-01T08:58:37.545Z,99080.00
2023-02-01T09:01:09.608Z,99066.00
2023-02-01T09:03:36.254Z,99076.00
2023-02-01T09:06:04.830Z,99076.00
2023-02-01T09:08:32.006Z,99078.00
2023-02-01T09:11:03.543Z,99070.00
2023-02-01T09:13:30.379Z,99080.00
2023-02-01T09:15:56.983Z,99080.00
2023-02-01T09:18:23.651Z,99083.00
2023-02-01T09:20:50.210Z,99094.00
2023-02-01T09:23:16.791Z,99093.00
2023-02-01T09:25:43.373Z,99092.00
2023-02-01T09:28:10.127Z,99073.00
2023-02-01T09:30:38.038Z,99095.00
2023-02-01T09:33:05.122Z,99093.00
2023-02-01T09:35:31.785Z,99102.00
2023-02-01T09:37:58.296Z,99119.00
2023-02-01T09:40:25.420Z,99120.00
2023-02-01T09:43:20.736Z,99139.00
2023-02-01T09:46:22.200Z,99152.00
2023-02-01T09:48:52.197Z,99137.00
2023-02-01T09:51:24.500Z,99146.00
2023-02-01T09:54:15.186Z,99150.00
2023-02-01T09:56:48.008Z,99147.00
2023-02-01T09:59:29.791Z,99144.00
2023-02-01T10:01:56.781Z,99157.00
2023-02-01T10:04:23.889Z,99147.00
2023-02-01T10:07:05.643Z,99143.00
2023-02-01T10:09:39.565Z,99144.00
2023-02-01T10:12:25.534Z,99159.00
2023-02-01T10:15:07.344Z,99162.00
2023-02-01T10:17:57.283Z,99156.00
2023-02-01T10:20:29.775Z,99160.00
2023-02-01T10:23:34.133Z,99168.00
2023-02-01T10:26:21.650Z,99162.00
2023-02-01T10:28:51.726Z,99172.00
2023-02-01T10:31:19.559Z,99174.00
2023-02-01T10:33:49.354Z,99166.00
2023-02-01T10:36:41.636Z,99167.00
2023-02-01T10:39:12.943Z,99163.00
2023-02-01T10:41:41.526Z,99162.00
2023-02-01T10:44:15.148Z,99157.00
2023-02-01T10:46:42.161Z,99155.00
2023-02-01T10:49:16.431Z,99144.00
2023-02-01T10:51:54.479Z,99136.00
2023-02-01T10:54:35.211Z,99140.00
2023-02-01T10:57:01.843Z,99139.00
2023-02-01T10:59:30.077Z,99134.00
2023-02-01T11:02:14.296Z,99127.00
2023-02-01T11:04:40.879Z,99122.00
2023-02-01T11:07:08.607Z,99116.00
2023-02-01T11:09:41.360Z,99110.00
2023-02-01T11:12:25.776Z,99108.00
2023-02-01T11:14:57.503Z,99113.00
2023-02-01T11:17:36.187Z,99110.00
2023-02-01T11:20:15.517Z,99102.00
2023-02-01T11:22:48.535Z,99104.00
2023-02-01T11:25:18.434Z,99104.00
2023-02-01T11:27:54.513Z,99103.00
2023-02-01T11:30:56.092Z,99106.00
2023-02-01T11:33:30.826Z,99109.00
2023-02-01T11:35:59.442Z,99106.00
2023-02-01T11:38:31.418Z,99118.00
2023-02-01T11:41:21.919Z,99108.00
2023-02-01T11:44:00.614Z,99112.00
2023-02-01T11:46:33.424Z,99105.00
2023-02-01T11:49:26.111Z,99102.00
2023-02-01T11:52:15.350Z,99101.00
2023-02-01T11:54:53.925Z,99101.00
2023-02-01T11:57:30.021Z,99109.00
2023-02-01T12:00:25.243Z,99093.00
2023-02-01T12:03:04.429Z,99103.00
2023-02-01T12:05:40.641Z,99095.00
2023-02-01T12:08:28.212Z,99097.00
2023-02-01T12:11:30.906Z,99089.00
2023-02-01T12:14:08.423Z,99091.00
2023-02-01T12:16:52.440Z,99087.00
2023-02-01T12:19:30.333Z,99079.00
2023-02-01T12:22:19.624Z,99092.00
2023-02-01T12:25:02.783Z,99086.00
2023-02-01T12:28:01.975Z,99096.00
2023-02-01T12:30:46.797Z,99085.00
2023-02-01T12:33:46.855Z,99074.00
2023-02-01T12:36:49.365Z,99078.00
2023-02-01T12:39:39.531Z,99070.00
2023-02-01T12:42:32.407Z,99072.00
2023-02-01T12:45:13.819Z,99072.00
2023-02-01T12:47:50.993Z,99064.00
2023-02-01T12:50:29.359Z,99055.00
2023-02-01T12:53:07.525Z,99054.00
2023-02-01T12:55:39.361Z,99037.00
2023-02-01T12:58:12.530Z,99050.00
2023-02-01T13:00:44.504Z,99018.00
2023-02-01T13:03:45.218Z,99019.00
2023-02-01T13:06:24.000Z,99010.00
2023-02-01T13:09:11.830Z,99012.00
2023-02-01T13:11:39.976Z,99017.00
2023-02-01T13:14:28.988Z,99009.00
2023-02-01T13:17:02.843Z,99012.00
2023-02-01T13:19:47.901Z,99014.00
2023-02-01T13:22:21.243Z,98996.00
2023-02-01T13:24:55.194Z,99009.00
2023-02-01T13:27:22.674Z,99006.00
2023-02-01T13:29:57.557Z,99003.00
2023-02-01T13:33:51.380Z,99012.00
2023-02-01T13:35:55.525Z,99023.00
2023-02-01T13:38:35.494Z,99015.00
2023-02-01T13:41:31.819Z,99012.00
2023-02-01T13:44:11.930Z,99008.00
2023-02-01T13:46:45.160Z,99000.00
2023-02-01T13:49:33.564Z,99020.00
2023-02-01T13:52:00.548Z,99029.00
2023-02-01T13:54:29.993Z,99024.00
2023-02-01T13:56:59.866Z,99024.00
2023-02-01T13:59:41.534Z,99019.00
2023-02-01T14:02:39.083Z,99012.00
2023-02-01T14:05:09.781Z,99020.00
2023-02-01T14:07:36.663Z,99012.00
2023-02-01T14:10:40.681Z,99016.00
2023-02-01T14:13:33.391Z,98998.00
2023-02-01T14:16:05.854Z,99016.00
2023-02-01T14:18:38.709Z,99016.00
2023-02-01T14:21:37.196Z,99006.00
2023-02-01T14:24:21.317Z,99010.00
2023-02-01T14:26:50.232Z,99017.00
2023-02-01T14:29:20.876Z,99019.00
2023-02-01T14:32:00.729Z,99028.00
2023-02-01T14:34:48.625Z,99028.00
2023-02-01T14:37:18.187Z,99025.00
2023-02-01T14:39:47.711Z,99034.00
2023-02-01T14:42:23.247Z,99036.00
2023-02-01T14:44:59.429Z,99053.00
2023-02-01T14:47:29.948Z,99038.00
2023-02-01T14:50:04.046Z,99044.00
2023-02-01T14:52:50.965Z,99029.00
2023-02-01T14:55:30.713Z,99025.00
2023-02-01T14:58:01.751Z,99014.00
2023-02-01T15:00:30.825Z,99009.00
2023-02-01T15:03:25.502Z,99025.00
2023-02-01T15:05:59.348Z,99023.00
2023-02-01T15:08:31.141Z,99019.00
2023-02-01T15:11:02.156Z,99024.00
2023-02-01T15:13:29.987Z,99016.00
2023-02-01T15:16:13.197Z,99015.00
2023-02-01T15:18:40.453Z,99016.00
2023-02-01T15:21:27.434Z,99021.00
2023-02-01T15:24:15.592Z,99029.00
2023-02-01T15:26:42.350Z,99023.00
2023-02-01T15:29:14.226Z,99025.00
2023-02-01T15:31:45.660Z,99023.00
2023-02-01T15:34:16.103Z,99019.00
2023-02-01T15:37:00.393Z,99032.00
2023-02-01T15:39:30.422Z,99020.00
2023-02-01T15:42:02.879Z,99023.00
2023-02-01T15:44:43.569Z,99024.00
2023-02-01T15:47:17.699Z,99035.00
2023-02-01T15:49:47.556Z,99039.00
2023-02-01T15:52:35.488Z,99052.00
2023-02-01T15:55:08.428Z,99052.00
2023-02-01T15:57:40.358Z,99041.00
2023-02-01T16:00:23.198Z,99034.00
2023-02-01T16:02:55.592Z,99040.00
2023-02-01T16:05:30.875Z,99044.00
2023-02-01T16:08:05.314Z,99042.00
2023-02-01T16:10:33.202Z,99041.00
2023-02-01T16:13:01.263Z,99048.00
2023-02-01T16:15:31.368Z,99049.00
2023-02-01T16:17:57.936Z,99035.00
2023-02-01T16:20:24.919Z,99042.00
2023-02-01T16:22:51.854Z,99049.00
2023-02-01T16:25:18.391Z,99062.00
2023-02-01T16:27:44.903Z,99065.00
2023-02-01T16:30:12.553Z,99061.00
2023-02-01T16:32:39.253Z,99067.00
2023-02-01T16:35:42.993Z,99070.00
2023-02-01T16:38:16.309Z,99078.00
2023-02-01T16:40:44.322Z,99070.00
2023-02-01T16:43:19.297Z,99073.00
2023-02-01T16:45:49.305Z,99087.00
2023-02-01T16:48:27.313Z,99081.00
2023-02-01T16:50:57.709Z,99078.00
2023-02-01T16:53:26.997Z,99085.00
2023-02-01T16:55:53.632Z,99085.00
2023-02-01T16:58:21.462Z,99095.00
2023-02-01T17:00:50.250Z,99089.00
2023-02-01T17:03:20.039Z,99091.00
2023-02-01T17:05:49.400Z,99089.00
2023-02-01T17:08:35.260Z,99094.00
2023-02-01T17:11:02.820Z,99088.00
2023-02-01T17:13:29.651Z,99094.00
2023-02-01T17:16:00.943Z,99090.00
2023-02-01T17:18:31.678Z,99088.00
2023-02-01T17:21:03.086Z,99089.00
2023-02-01T17:23:30.696Z,99082.00
2023-02-01T17:25:57.816Z,99091.00
2023-02-01T17:28:25.086Z,99082.00
2023-02-01T17:30:51.798Z,99079.00
2023-02-01T17:33:36.060Z,99079.00
2023-02-01T17:36:04.703Z,99080.00
2023-02-01T17:38:31.476Z,99073.00
2023-02-01T17:40:58.039Z,99078.00
2023-02-01T17:43:26.076Z,99079.00
2023-02-01T17:45:56.272Z,99074.00
2023-02-01T17:48:23.654Z,99074.00
2023-02-01T17:50:54.671Z,99080.00
2023-02-01T17:53:24.497Z,99081.00
2023-02-01T17:55:52.682Z,99078.00
2023-02-01T17:58:20.016Z,99085.00
2023-02-01T18:00:48.065Z,99086.00
2023-02-01T18:03:26.945Z,99080.00
2023-02-01T18:05:55.713Z,99086.00
2023-02-01T18:08:24.810Z,99090.00
2023-02-01T18:10:54.389Z,99096.00
2023-02-01T18:13:21.480Z,99099.00
2023-02-01T18:15:48.938Z,99092.00
2023-02-01T18:18:15.617Z,99092.00
2023-02-01T18:20:44.198Z,99109.00
2023-02-01T18:23:18.810Z,99104.00
2023-02-01T18:25:47.135Z,99097.00
2023-02-01T18:28:15.637Z,99097.00
2023-02-01T18:30:44.747Z,99094.00
2023-02-01T18:33:16.300Z,99100.00
2023-02-01T18:35:43.542Z,99091.00
2023-02-01T18:38:10.721Z,99089.00
2023-02-01T18:40:46.359Z,99082.00
2023-02-01T18:43:14.065Z,99076.00
2023-02-01T18:45:42.278Z,99081.00
2023-02-01T18:48:10.614Z,99077.00
2023-02-01T18:50:40.066Z,99085.00
2023-02-01T18:53:13.295Z,99089.00
2023-02-01T18:55:40.190Z,99085.00
2023-02-01T18:58:07.352Z,99090.00
2023-02-01T19:00:35.393Z,99093.00
2023-02-01T19:03:02.073Z,99099.00
2023-02-01T19:05:28.752Z,99104.00
2023-02-01T19:07:55.220Z,99099.00
2023-02-01T19:10:23.664Z,99093.00
2023-02-01T19:12:51.959Z,99082.00
2023-02-01T19:15:18.803Z,99106.00
2023-02-01T19:17:47.234Z,99100.00
2023-02-01T19:20:16.371Z,99103.00
2023-02-01T19:22:43.065Z,99096.00
2023-02-01T19:25:13.387Z,99102.00
2023-02-01T19:27:40.015Z,99117.00
2023-02-01T19:30:07.210Z,99115.00
2023-02-01T19:32:34.012Z,99109.00
2023-02-01T19:35:00.570Z,99113.00
2023-02-01T19:37:27.090Z,99116.00
2023-02-01T19:39:53.572Z,99107.00
2023-02-01T19:42:20.322Z,99115.00
2023-02-01T19:44:46.968Z,99103.00
2023-02-01T19:47:13.493Z,99108.00
2023-02-01T19:49:41.831Z,99113.00
2023-02-01T19:52:08.457Z,99110.00
2023-02-01T19:54:35.283Z,99115.00
2023-02-01T19:57:01.915Z,99113.00
2023-02-01T19:59:28.601Z,99106.00
2023-02-01T20:01:54.895Z,99101.00
2023-02-01T20:04:21.743Z,99103.00
2023-02-01T20:06:49.126Z,99092.00
2023-02-01T20:09:17.789Z,99089.00
2023-02-01T20:11:44.914Z,99094.00
2023-02-01T20:14:12.368Z,99095.00
2023-02-01T20:16:40.390Z,99104.00
2023-02-01T20:19:09.203Z,99101.00
2023-02-01T20:21:37.112Z,99105.00
2023-02-01T20:24:06.743Z,99112.00
2023-02-01T20:26:34.528Z,99110.00
2023-02-01T20:29:01.951Z,99109.00
2023-02-01T20:31:29.833Z,99107.00
2023-02-01T20:33:57.395Z,99103.00
2023-02-01T20:36:26.309Z,99089.00
2023-02-01T20:38:54.394Z,99099.00
2023-02-01T20:41:21.412Z,99097.00
2023-02-01T20:43:48.774Z,99109.00
2023-02-01T20:46:15.986Z,99101.00
2023-02-01T20:48:44.369Z,99099.00
2023-02-01T20:51:12.253Z,99095.00
2023-02-01T20:53:39.863Z,99095.00
2023-02-01T20:56:07.573Z,99093.00
2023-02-01T20:58:34.632Z,99102.00
2023-02-01T21:01:01.384Z,99098.00
2023-02-01T21:03:27.936Z,99105.00
2023-02-01T21:05:57.631Z,99102.00
2023-02-01T21:08:25.260Z,99092.00
2023-02-01T21:10:59.429Z,99089.00
2023-02-01T21:13:27.797Z,99094.00
2023-02-01T21:15:54.431Z,99089.00
2023-02-01T21:18:21.513Z,99086.00
2023-02-01T21:20:48.169Z,99097.00
2023-02-01T21:23:16.073Z,99095.00
2023-02-01T21:25:44.267Z,99090.00
2023-02-01T21:28:11.403Z,99090.00
2023-02-01T21:30:38.449Z,99087.00
2023-02-01T21:33:05.944Z,99087.00
2023-02-01T21:35:32.475Z,99075.00
2023-02-01T21:37:59.060Z,99075.00
2023-02-01T21:40:25.572Z,99082.00
2023-02-01T21:42:52.236Z,99084.00
2023-02-01T21:45:18.774Z,99084.00
2023-02-01T21:47:45.964Z,99086.00
2023-02-01T21:50:18.086Z,99091.00
2023-02-01T21:52:45.272Z,99104.00
2023-02-01T21:55:12.820Z,99083.00
2023-02-01T21:57:39.670Z,99093.00
2023-02-01T22:00:08.665Z,99095.00
2023-02-01T22:02:35.881Z,99100.00
2023-02-01T22:05:05.248Z,99101.00
2023-02-01T22:07:33.873Z,99102.00
2023-02-01T22:10:01.724Z,99097.00
2023-02-01T22:12:28.258Z,99105.00
2023-02-01T22:14:54.760Z,99093.00
2023-02-01T22:17:21.484Z,99097.00
2023-02-01T22:19:48.027Z,99111.00
2023-02-01T22:22:14.546Z,99100.00
2023-02-01T22:24:41.030Z,99114.00
2023-02-01T22:27:14.391Z,99124.00
2023-02-01T22:29:42.473Z,99117.00
2023-02-01T22:32:09.527Z,99117.00
2023-02-01T22:34:36.101Z,99118.00
2023-02-01T22:37:03.077Z,99121.00
2023-02-01T22:39:29.597Z,99125.00
2023-02-01T22:41:56.103Z,99130.00
2023-02-01T22:44:23.732Z,99124.00
2023-02-01T22:46:50.476Z,99140.00
2023-02-01T22:49:17.291Z,99137.00
2023-02-01T22:51:44.033Z,99137.00
2023-02-01T22:54:17.410Z,99144.00
2023-02-01T22:56:43.884Z,99140.00
2023-02-01T22:59:12.855Z,99136.00
2023-02-01T23:01:39.426Z,99127.00
2023-02-01T23:04:09.312Z,99133.00
2023-02-01T23:06:36.092Z,99128.00
2023-02-01T23:09:11.321Z,99141.00
2023-02-01T23:11:38.812Z,99133.00
2023-02-01T23:14:06.251Z,99132.00
2023-02-01T23:16:33.122Z,99127.00
2023-02-01T23:19:00.152Z,99118.00
2023-02-01T23:21:26.836Z,99118.00
2023-02-01T23:23:55.497Z,99118.00
2023-02-01T23:26:23.489Z,99119.00
2023-02-01T23:28:55.006Z,99121.00
2023-02-01T23:31:24.143Z,99116.00
2023-02-01T23:33:54.658Z,99120.00
2023-02-01T23:36:22.615Z,99120.00
2023-02-01T23:38:49.473Z,99126.00
2023-02-01T23:41:17.927Z,99135.00
2023-02-01T23:44:00.125Z,99130.00
2023-02-01T23:46:32.516Z,99143.00
2023-02-01T23:49:00.263Z,99135.00
2023-02-01T23:51:27.716Z,99131.00
2023-02-01T23:53:55.152Z,99133.00
2023-02-01T23:56:31.214Z,99134.00
2023-02-01T23:58:57.923Z,99128.00
